Hedon, United Kingdom
Current Conditions -  °F | °C
As of 11:20 PM on Thursday 20 Nov 2014 (Local Time) from EGNJ Reporting Station
Light Rain Light Rain  
Wind Chill: 45°   Ceiling: 2300
Heat Index: 48°   Visibility: 1mi
Dew Point: 46°   Wind: 7mph
Humidity: 93%   Direction: 120°ESE
Pressure: 30.27"   Gusts: NA
Location:  53.74°N, 0.2°W
Report Text: EGNJ 202320Z AUTO 12006KT 1700 -RA BKN023/// OVC049/// 09/08 Q1025 RERA
Loading
Personal Weather Stations






























Interactive Weather Map New forecast layout! Learn more

10-Day Weather Forecast

Advertisements
Track Severe Weather on mobile